Time;durP1;ratioP1;P1;durP2;ratioP2;P2;SDS_P1;SDS_P2;PMS_P1;PMS_P2;Temp;Humidity;BMP_temperature;BMP_pressure;BME280_temperature;BME280_humidity;BME280_pressure;Samples;Min_cycle;Max_cycle;Signal;HPM_P1;HPM_P2
2024/02/27 00:01:38;;;;;;;125.28;76.05;;;;;;;;;;5092530;28;20020;-78
2024/02/27 00:04:05;;;;;;;106.93;64.70;;;;;;;;;;5091192;28;20024;-76
2024/02/27 00:06:31;;;;;;;48.70;30.85;;;;;;;;;;5091072;28;20028;-71
2024/02/27 00:08:57;;;;;;;39.60;25.73;;;;;;;;;;5091682;28;20016;-74
2024/02/27 00:11:24;;;;;;;39.58;24.63;;;;;;;;;;5091520;28;20081;-77
2024/02/27 00:13:50;;;;;;;40.90;24.00;;;;;;;;;;5091731;28;20020;-78
2024/02/27 00:16:17;;;;;;;51.55;33.50;;;;;;;;;;5091762;28;20046;-80
2024/02/27 00:18:44;;;;;;;45.95;30.63;;;;;;;;;;5090772;28;20023;-72
2024/02/27 00:21:10;;;;;;;38.83;24.25;;;;;;;;;;5091857;28;20027;-70
2024/02/27 00:23:36;;;;;;;37.03;22.05;;;;;;;;;;5091608;28;20098;-78
2024/02/27 00:26:03;;;;;;;54.35;29.20;;;;;;;;;;5091357;28;20103;-71
2024/02/27 00:28:29;;;;;;;45.63;27.33;;;;;;;;;;5089647;28;20101;-71
2024/02/27 00:30:55;;;;;;;50.67;32.40;;;;;;;;;;5090251;28;20023;-70
2024/02/27 00:33:21;;;;;;;35.83;25.60;;;;;;;;;;5091581;28;20024;-74
2024/02/27 00:35:47;;;;;;;36.13;21.63;;;;;;;;;;5090468;28;20047;-71
2024/02/27 00:38:13;;;;;;;29.45;18.88;;;;;;;;;;5064118;28;20040;-71
2024/02/27 00:40:40;;;;;;;25.02;13.50;;;;;;;;;;5087435;28;20021;-71
2024/02/27 00:43:06;;;;;;;382.02;201.27;;;;;;;;;;5064772;28;20077;-72
2024/02/27 00:45:33;;;;;;;252.27;119.85;;;;;;;;;;5090604;28;20031;-76
2024/02/27 00:47:59;;;;;;;40.97;24.10;;;;;;;;;;5090793;28;20030;-74
2024/02/27 00:50:25;;;;;;;114.32;63.60;;;;;;;;;;5079991;28;20466;-71
2024/02/27 00:52:51;;;;;;;99.82;54.63;;;307.60;2304.00;;;;;;5084141;28;20739;-71
2024/02/27 00:55:16;;;;;;;65.68;39.35;;;307.30;2304.00;;;;;;5084141;28;20031;-71
2024/02/27 00:57:43;;;;;;;48.88;31.95;;;307.20;2304.00;;;;;;5085344;28;20060;-75
2024/02/27 01:00:12;;;;;;;60.85;36.72;;;307.20;2304.00;;;;;;5087918;28;20095;-72
2024/02/27 01:02:38;;;;;;;219.05;108.30;;;307.20;2304.00;;;;;;5087111;28;20099;-72
2024/02/27 01:05:05;;;;;;;130.10;70.45;;;282.50;2278.40;;;;;;5087994;28;20103;-75
2024/02/27 01:07:31;;;;;;;57.08;36.55;;;282.50;2278.40;;;;;;5088075;28;20024;-71
2024/02/27 01:09:57;;;;;;;50.30;33.40;;;282.50;2278.40;;;;;;5088867;28;20122;-74
2024/02/27 01:12:26;;;;;;;59.45;39.38;;;282.40;2278.40;;;;;;5071077;28;20485;-76
2024/02/27 01:14:52;;;;;;;73.50;47.00;;;282.30;2278.40;;;;;;5071090;28;20043;-76
2024/02/27 01:17:18;;;;;;;71.72;47.33;;;282.30;2278.40;;;;;;5068172;28;20084;-71
2024/02/27 01:19:44;;;;;;;67.88;43.15;;;282.30;2278.40;;;;;;5072131;28;20093;-73
2024/02/27 01:22:10;;;;;;;39.03;23.92;;;282.30;2278.40;;;;;;5072204;28;20100;-74
2024/02/27 01:24:37;;;;;;;34.63;20.45;;;282.50;2278.40;;;;;;5073216;28;20111;-72
2024/02/27 01:27:04;;;;;;;33.53;21.17;;;282.30;2278.40;;;;;;5070179;28;20024;-70
2024/02/27 01:29:30;;;;;;;30.55;18.13;;;282.30;2278.40;;;;;;5073743;28;20259;-74
2024/02/27 01:31:56;;;;;;;39.08;24.63;;;282.30;2278.40;;;;;;5072692;28;20027;-76
2024/02/27 01:34:23;;;;;;;36.75;24.17;;;282.20;2278.40;;;;;;5074612;28;20039;-75
2024/02/27 01:36:49;;;;;;;32.55;20.95;;;282.30;2278.40;;;;;;5072614;28;20445;-78
2024/02/27 01:39:15;;;;;;;32.85;21.42;;;282.30;2278.40;;;;;;5072658;28;20051;-73
2024/02/27 01:41:47;;;;;;;32.28;20.17;;;282.30;2278.40;;;;;;5073447;28;20055;-77
2024/02/27 01:44:13;;;;;;;42.28;23.80;;;282.30;2278.40;;;;;;5077479;28;20032;-81
2024/02/27 01:46:39;;;;;;;48.95;25.80;;;282.30;2278.40;;;;;;5081705;28;20409;-72
2024/02/27 01:49:05;;;;;;;27.55;17.23;;;282.20;2278.40;;;;;;5089880;28;20017;-71
2024/02/27 01:51:31;;;;;;;19.08;12.23;;;282.20;2278.40;;;;;;5089879;28;20028;-72
2024/02/27 01:53:59;;;;;;;14.45;10.60;;;282.40;2278.40;;;;;;5089887;28;20095;-77
2024/02/27 01:56:25;;;;;;;22.25;14.57;;;282.40;2278.40;;;;;;5089701;28;20430;-72
2024/02/27 01:58:52;;;;;;;21.50;14.10;;;282.30;2278.40;;;;;;5089327;28;20162;-73
2024/02/27 02:01:20;;;;;;;19.00;9.93;;;282.30;2278.40;;;;;;5090155;28;20027;-70
2024/02/27 02:03:45;;;;;;;15.40;9.35;;;282.30;2278.40;;;;;;5089472;28;20050;-80
2024/02/27 02:06:12;;;;;;;13.52;8.02;;;282.40;2278.40;;;;;;5090039;28;20470;-77
2024/02/27 02:08:38;;;;;;;10.32;7.32;;;282.40;2278.40;;;;;;5089236;28;20024;-73
2024/02/27 02:11:05;;;;;;;17.55;8.10;;;282.50;2278.40;;;;;;5089801;28;20093;-74
2024/02/27 02:13:32;;;;;;;13.30;8.35;;;307.20;2304.00;;;;;;5087779;28;20636;-71
2024/02/27 02:15:58;;;;;;;14.77;7.70;;;307.30;2304.00;;;;;;5089558;28;20024;-74
2024/02/27 02:18:23;;;;;;;16.58;8.55;;;307.40;2304.00;;;;;;5088823;28;20035;-80
2024/02/27 02:20:49;;;;;;;16.58;9.13;;;307.40;2304.00;;;;;;5090209;28;20028;-71
2024/02/27 02:23:15;;;;;;;13.70;8.68;;;307.40;2304.00;;;;;;5089449;28;20024;-78
2024/02/27 02:25:41;;;;;;;17.50;11.00;;;307.50;2304.00;;;;;;5089469;28;20420;-78
2024/02/27 02:28:07;;;;;;;15.40;9.68;;;307.60;2304.00;;;;;;5088560;28;20024;-71
2024/02/27 02:30:33;;;;;;;14.15;9.10;;;307.60;2304.00;;;;;;5089430;28;20070;-71
2024/02/27 02:32:59;;;;;;;12.50;8.15;;;307.70;2304.00;;;;;;5087413;28;20031;-70
2024/02/27 02:35:25;;;;;;;17.02;10.93;;;307.70;2304.00;;;;;;5089285;28;20024;-75
2024/02/27 02:37:50;;;;;;;50.90;24.75;;;307.70;2304.00;;;;;;5088607;28;20123;-70
2024/02/27 02:40:19;;;;;;;48.28;31.92;;;307.50;2304.00;;;;;;5089215;28;20075;-76
2024/02/27 02:42:45;;;;;;;38.17;27.20;;;307.20;2304.00;;;;;;5088195;28;20385;-71
2024/02/27 02:45:12;;;;;;;34.65;23.65;;;282.30;2278.40;;;;;;5089774;28;20020;-74
2024/02/27 02:47:38;;;;;;;50.55;32.80;;;282.30;2278.40;;;;;;5089348;28;20012;-78
2024/02/27 02:50:05;;;;;;;45.67;23.73;;;282.20;2278.40;;;;;;5089546;28;20073;-80
2024/02/27 02:52:31;;;;;;;35.90;22.80;;;282.00;2278.40;;;;;;5088743;28;20018;-77
2024/02/27 02:54:57;;;;;;;31.92;19.90;;;282.00;2278.40;;;;;;5089200;28;20028;-71
2024/02/27 02:57:23;;;;;;;29.83;19.30;;;282.10;2278.40;;;;;;5086992;28;20406;-72
2024/02/27 02:59:49;;;;;;;28.40;16.20;;;282.00;2278.40;;;;;;5088852;28;20024;-82
2024/02/27 03:02:15;;;;;;;29.15;18.38;;;282.00;2278.40;;;;;;5088919;28;20037;-73
2024/02/27 03:04:41;;;;;;;27.65;14.82;;;282.00;2278.40;;;;;;5089263;28;20054;-76
2024/02/27 03:07:06;;;;;;;23.70;11.27;;;282.00;2278.40;;;;;;5088210;28;20028;-77
2024/02/27 03:09:32;;;;;;;20.05;11.60;;;282.10;2278.40;;;;;;5088914;28;20035;-72
2024/02/27 03:12:00;;;;;;;25.10;12.15;;;282.10;2278.40;;;;;;5089384;28;20319;-74
2024/02/27 03:14:26;;;;;;;24.77;13.57;;;282.10;2278.40;;;;;;5088879;28;20024;-81
2024/02/27 03:16:54;;;;;;;23.83;14.23;;;282.10;2278.40;;;;;;5089092;28;20023;-78
2024/02/27 03:19:20;;;;;;;21.90;12.88;;;282.20;2278.40;;;;;;5089213;28;20024;-74
2024/02/27 03:21:46;;;;;;;28.55;15.52;;;282.20;2278.40;;;;;;5088475;28;20016;-72
2024/02/27 03:24:11;;;;;;;27.05;14.68;;;282.10;2278.40;;;;;;5088630;28;20032;-73
2024/02/27 03:26:37;;;;;;;260.25;177.02;;;282.10;2278.40;;;;;;5088371;28;20024;-71
2024/02/27 03:29:03;;;;;;;30.67;20.23;;;282.10;2278.40;;;;;;5087974;28;20107;-74
2024/02/27 03:31:29;;;;;;;34.55;21.08;;;282.20;2278.40;;;;;;5088893;28;20104;-75
2024/02/27 03:33:55;;;;;;;19.85;11.35;;;282.20;2278.40;;;;;;5088928;28;20462;-74
2024/02/27 03:36:21;;;;;;;19.25;12.15;;;282.20;2278.40;;;;;;5079780;28;20795;-80
2024/02/27 03:38:46;;;;;;;21.60;12.85;;;282.30;2278.40;;;;;;5078800;28;20328;-80
2024/02/27 03:41:15;;;;;;;21.70;16.48;;;282.20;2278.40;;;;;;5090141;28;20470;-70
2024/02/27 03:43:42;;;;;;;19.83;13.45;;;282.10;2278.40;;;;;;5092127;28;20036;-78
2024/02/27 03:46:08;;;;;;;20.45;13.35;;;282.10;2278.40;;;;;;5092217;28;20024;-80
2024/02/27 03:48:34;;;;;;;17.23;12.60;;;282.00;2278.40;;;;;;5092205;28;20016;-82
2024/02/27 03:51:00;;;;;;;22.33;13.27;;;282.00;2278.40;;;;;;5091991;28;20069;-74
2024/02/27 03:53:30;;;;;;;25.95;18.80;;;256.50;2252.80;;;;;;5092088;28;20020;-74
2024/02/27 03:55:56;;;;;;;24.15;15.40;;;;;;;;;;5091499;28;20458;-72
2024/02/27 03:58:22;;;;;;;25.67;15.02;;;;;;;;;;5091828;28;20042;-71
2024/02/27 04:00:48;;;;;;;31.20;18.00;;;;;;;;;;5090718;28;20030;-71
2024/02/27 04:03:15;;;;;;;54.05;32.30;;;;;;;;;;5091742;28;20020;-78
2024/02/27 04:05:41;;;;;;;52.55;33.00;;;;;;;;;;5091482;28;20054;-73
2024/02/27 04:08:08;;;;;;;45.35;24.88;;;282.00;2278.40;;;;;;5091995;28;20107;-72
2024/02/27 04:10:37;;;;;;;60.20;33.10;;;281.90;2278.40;;;;;;5090131;28;20447;-75
2024/02/27 04:13:04;;;;;;;67.03;36.17;;;281.90;2278.40;;;;;;5091113;28;20024;-74
2024/02/27 04:15:30;;;;;;;25.48;15.98;;;281.70;2278.40;;;;;;5091628;28;20039;-72
2024/02/27 04:17:57;;;;;;;33.03;21.42;;;281.70;2278.40;;;;;;5091604;28;20032;-71
2024/02/27 04:20:23;;;;;;;33.30;19.63;;;281.70;2278.40;;;;;;5091515;28;20069;-70
2024/02/27 04:22:49;;;;;;;18.65;12.00;;;281.80;2278.40;;;;;;5090242;28;20067;-71
2024/02/27 04:25:15;;;;;;;25.55;14.73;;;281.80;2278.40;;;;;;5091161;28;20020;-70
2024/02/27 04:27:41;;;;;;;20.88;14.35;;;281.80;2278.40;;;;;;5091130;28;20032;-78
2024/02/27 04:30:07;;;;;;;49.03;26.90;;;281.90;2278.40;;;;;;5091832;28;20508;-75
2024/02/27 04:32:34;;;;;;;25.30;13.48;;;281.70;2278.40;;;;;;5090864;28;20020;-73
2024/02/27 04:35:01;;;;;;;26.20;14.13;;;281.70;2278.40;;;;;;5091731;28;20107;-76
2024/02/27 04:37:26;;;;;;;30.73;15.90;;;281.80;2278.40;;;;;;5090305;28;20119;-71
2024/02/27 04:39:53;;;;;;;29.77;18.05;;;281.70;2278.40;;;;;;5091258;28;20154;-71
2024/02/27 04:42:18;;;;;;;32.53;17.77;;;281.70;2278.40;;;;;;5091215;28;20077;-71
2024/02/27 04:44:44;;;;;;;36.30;22.05;;;281.70;2278.40;;;;;;5085946;28;20028;-72
2024/02/27 04:47:10;;;;;;;31.70;20.30;;;281.70;2278.40;;;;;;5090954;28;20035;-78
2024/02/27 04:49:36;;;;;;;26.85;17.20;;;281.60;2278.40;;;;;;5091391;28;20462;-78
2024/02/27 04:52:02;;;;;;;22.35;13.77;;;256.90;2252.80;;;;;;5090542;28;20111;-71
2024/02/27 04:54:28;;;;;;;19.60;14.45;;;281.60;2278.40;;;;;;5091002;28;20040;-73
2024/02/27 04:56:54;;;;;;;18.23;12.88;;;256.90;2252.80;;;;;;5090807;28;20030;-77
2024/02/27 04:59:20;;;;;;;20.17;13.65;;;256.90;2252.80;;;;;;5090686;28;20028;-75
2024/02/27 05:01:47;;;;;;;19.80;14.15;;;256.00;2252.80;;;;;;5090698;28;20462;-88
2024/02/27 05:04:14;;;;;;;45.25;29.83;;;281.60;2278.40;;;;;;5090718;28;20016;-74
2024/02/27 05:06:39;;;;;;;24.83;14.57;;;281.60;2278.40;;;;;;5090971;28;20031;-76
2024/02/27 05:09:05;;;;;;;28.98;17.80;;;256.90;2252.80;;;;;;5091295;28;20027;-69
2024/02/27 05:11:31;;;;;;;27.35;18.15;;;256.90;2252.80;;;;;;5088675;28;20078;-70
2024/02/27 05:13:57;;;;;;;61.63;41.35;;;256.80;2252.80;;;;;;5090928;28;20012;-77
2024/02/27 05:16:23;;;;;;;23.67;14.90;;;256.80;2252.80;;;;;;5090796;28;20035;-73
2024/02/27 05:18:49;;;;;;;28.45;16.13;;;256.90;2252.80;;;;;;5089093;28;20525;-71
2024/02/27 05:21:19;;;;;;;42.20;24.20;;;256.80;2252.80;;;;;;5090503;28;20024;-71
2024/02/27 05:23:46;;;;;;;34.13;20.00;;;256.80;2252.80;;;;;;5090345;28;20027;-74
2024/02/27 05:26:12;;;;;;;20.40;13.55;;;256.90;2252.80;;;;;;5089396;28;20024;-71
2024/02/27 05:28:38;;;;;;;32.10;20.65;;;281.60;2278.40;;;;;;5078475;28;20020;-77
2024/02/27 05:31:28;;;;;;;32.53;20.25;;;281.60;2278.40;;;;;;5090259;28;20024;-80
2024/02/27 05:33:55;;;;;;;64.55;38.83;;;256.90;2252.80;;;;;;5088430;28;20119;-81
2024/02/27 05:36:22;;;;;;;34.67;22.00;;;281.60;2278.40;;;;;;5089659;28;20038;-70
2024/02/27 05:38:49;;;;;;;28.52;18.52;;;281.60;2278.40;;;;;;5090242;28;20036;-77
2024/02/27 05:41:15;;;;;;;32.33;15.40;;;281.70;2278.40;;;;;;5089690;28;20388;-73
2024/02/27 05:43:40;;;;;;;23.08;16.90;;;281.90;2278.40;;;;;;5090030;28;20111;-77
2024/02/27 05:46:06;;;;;;;23.58;15.10;;;281.90;2278.40;;;;;;5088855;28;20103;-78
2024/02/27 05:48:36;;;;;;;28.00;17.40;;;282.00;2278.40;;;;;;5089968;28;20070;-78
2024/02/27 05:51:02;;;;;;;45.13;32.17;;;282.10;2278.40;;;;;;5089578;28;20095;-74
2024/02/27 05:53:30;;;;;;;32.47;20.23;;;282.20;2278.40;;;;;;5089975;28;20103;-71
2024/02/27 05:55:56;;;;;;;30.60;19.70;;;282.20;2278.40;;;;;;5088253;28;20019;-70
2024/02/27 05:58:23;;;;;;;29.17;18.02;;;282.20;2278.40;;;;;;5089698;28;20032;-71
2024/02/27 06:00:53;;;;;;;23.27;18.02;;;282.20;2278.40;;;;;;5089740;28;20019;-78
2024/02/27 06:03:19;;;;;;;21.42;14.77;;;282.40;2278.40;;;;;;5089325;28;20017;-75
2024/02/27 06:05:45;;;;;;;45.50;30.92;;;282.30;2278.40;;;;;;5089212;28;20055;-80
2024/02/27 06:08:12;;;;;;;41.70;26.95;;;282.40;2278.40;;;;;;5089501;28;20456;-73
2024/02/27 06:10:39;;;;;;;30.67;20.77;;;282.50;2278.40;;;;;;5089610;28;20035;-78
2024/02/27 06:13:05;;;;;;;59.85;40.60;;;307.20;2304.00;;;;;;5089023;28;20024;-70
2024/02/27 06:15:31;;;;;;;34.53;23.17;;;307.50;2304.00;;;;;;5087277;28;20020;-75
2024/02/27 06:17:57;;;;;;;28.90;18.02;;;307.50;2304.00;;;;;;5088903;28;20036;-76
2024/02/27 06:23:07;;;;;;;43.30;26.70;;;307.80;2304.00;;;;;;5089900;28;20035;-75
2024/02/27 06:25:32;;;;;;;28.65;19.35;;;307.80;2304.00;;;;;;5089321;28;20020;-75
2024/02/27 06:27:58;;;;;;;39.15;34.63;;;307.90;2304.00;;;;;;5089274;28;20330;-77
2024/02/27 06:30:24;;;;;;;48.83;24.95;;;308.10;2304.00;;;;;;5088807;28;20094;-78
2024/02/27 06:32:50;;;;;;;36.38;27.70;;;332.90;2329.60;;;;;;5078083;28;20051;-77
2024/02/27 06:35:15;;;;;;;42.80;25.55;;;333.00;2329.60;;;;;;5089241;28;20032;-75
2024/02/27 06:37:41;;;;;;;32.33;21.85;;;333.10;2329.60;;;;;;5089074;28;20063;-72
2024/02/27 06:40:08;;;;;;;29.10;19.67;;;333.60;2329.60;;;;;;5089937;28;20028;-79
2024/02/27 06:42:37;;;;;;;41.30;22.02;;;333.60;2329.60;;;;;;5088002;28;20023;-79
2024/02/27 06:45:06;;;;;;;23.10;17.33;;;359.00;2329.60;;;;;;5089040;28;20072;-75
2024/02/27 06:47:32;;;;;;;48.17;33.58;;;384.30;2329.60;;;;;;5088630;28;20031;-78
2024/02/27 06:49:59;;;;;;;30.90;20.55;;;409.60;2252.80;;;;;;5088503;28;20462;-76
2024/02/27 06:52:25;;;;;;;32.25;21.00;;;410.30;2150.40;;;;;;5084624;28;20028;-76
2024/02/27 06:54:52;;;;;;;26.58;17.63;;;435.20;2124.80;;;;;;5083398;28;20027;-77
2024/02/27 06:57:18;;;;;;;36.03;20.23;;;435.50;2099.20;;;;;;5070644;28;20052;-78
2024/02/27 06:59:44;;;;;;;30.40;18.45;;;410.40;2099.20;;;;;;5078717;28;20024;-76
2024/02/27 07:02:10;;;;;;;25.95;19.67;;;384.90;2150.40;;;;;;5082311;28;20163;-75
2024/02/27 07:04:36;;;;;;;33.30;22.75;;;384.80;2176.00;;;;;;5080975;28;20035;-76
2024/02/27 07:07:03;;;;;;;32.88;21.27;;;384.40;2201.60;;;;;;5084565;28;20039;-75
2024/02/27 07:09:33;;;;;;;35.45;23.83;;;384.30;2227.20;;;;;;5079437;28;20522;-79
2024/02/27 07:11:59;;;;;;;38.35;22.00;;;384.00;2227.20;;;;;;5083157;28;20086;-78
2024/02/27 07:14:27;;;;;;;39.50;27.23;;;359.20;2252.80;;;;;;5089324;28;20026;-77
2024/02/27 07:16:56;;;;;;;37.97;27.83;;;384.10;2227.20;;;;;;5092266;28;20048;-77
2024/02/27 07:19:22;;;;;;;42.78;32.30;;;384.30;2252.80;;;;;;5084866;28;20611;-76
2024/02/27 07:21:48;;;;;;;47.40;28.35;;;384.10;2227.20;;;;;;5092543;28;20439;-77
2024/02/27 07:24:17;;;;;;;51.22;31.45;;;384.20;2227.20;;;;;;5089393;28;20103;-78
2024/02/27 07:26:43;;;;;;;70.45;36.95;;;384.20;2252.80;;;;;;5083293;28;20042;-78
2024/02/27 07:29:11;;;;;;;112.63;65.63;;;384.40;2227.20;;;;;;5072520;28;20036;-79
2024/02/27 07:31:37;;;;;;;39.47;26.55;;;384.80;2227.20;;;;;;5084386;28;20116;-78
2024/02/27 07:34:03;;;;;;;61.38;36.72;;;410.10;2176.00;;;;;;5084035;28;20026;-79
2024/02/27 07:36:29;;;;;;;47.58;27.45;;;461.40;2048.00;;;;;;5081330;28;20059;-79
2024/02/27 07:38:55;;;;;;;55.92;32.92;;;486.60;1945.60;;;;;;5084064;28;20056;-76
2024/02/27 07:41:21;;;;;;;50.55;33.10;;;486.60;1920.00;;;;;;5088925;28;20530;-81
2024/02/27 07:43:47;;;;;;;68.53;36.60;;;486.40;1971.20;;;;;;5088607;28;20024;-82
2024/02/27 07:46:13;;;;;;;30.48;19.85;;;487.20;1920.00;;;;;;5090874;28;20142;-80
2024/02/27 07:48:43;;;;;;;53.67;30.35;;;537.80;1817.60;;;;;;5092338;28;20048;-88
2024/02/27 07:51:28;;;;;;;49.60;27.75;;;563.80;1766.40;;;;;;5091812;28;20071;-89
2024/02/27 07:53:54;;;;;;;37.17;23.95;;;588.90;1715.20;;;;;;5091119;28;20020;-87
2024/02/27 07:56:20;;;;;;;30.05;19.92;;;589.10;1664.00;;;;;;5091998;28;20118;-90
2024/02/27 07:58:46;;;;;;;28.20;19.23;;;589.30;1664.00;;;;;;5089375;28;20118;-87
2024/02/27 08:01:11;;;;;;;32.17;23.38;;;589.40;1612.80;;;;;;5079765;28;20028;-87
2024/02/27 08:03:37;;;;;;;37.75;22.17;;;564.10;1664.00;;;;;;5089304;28;20028;-89
2024/02/27 08:06:06;;;;;;;27.90;24.02;;;563.40;1740.80;;;;;;5079418;28;20027;-85
2024/02/27 08:08:32;;;;;;;34.00;24.65;;;563.50;1715.20;;;;;;5088212;28;20086;-88
2024/02/27 08:10:58;;;;;;;33.75;25.60;;;563.70;1715.20;;;;;;5087775;28;20022;-89
2024/02/27 08:13:24;;;;;;;30.05;22.88;;;563.50;1740.80;;;;;;5086170;28;20055;-90
2024/02/27 08:15:50;;;;;;;33.47;21.30;;;564.00;1689.60;;;;;;5087745;28;20354;-88
2024/02/27 08:18:16;;;;;;;25.20;18.55;;;588.90;1664.00;;;;;;5084817;28;20040;-88
2024/02/27 08:20:42;;;;;;;43.17;27.95;;;589.20;1664.00;;;;;;5073852;28;20031;-90
2024/02/27 08:23:09;;;;;;;27.42;20.45;;;614.80;1612.80;;;;;;5079371;28;20028;-89
2024/02/27 08:25:37;;;;;;;24.95;17.55;;;640.40;1536.00;;;;;;5090255;28;20040;-88
2024/02/27 08:28:03;;;;;;;21.45;12.32;;;589.70;1638.40;;;;;;5070622;28;20032;-87
2024/02/27 08:30:29;;;;;;;16.05;11.77;;;589.40;1612.80;;;;;;5060117;28;20041;-88
2024/02/27 08:32:55;;;;;;;20.25;14.18;;;588.80;1638.40;;;;;;5073481;28;20086;-89
2024/02/27 08:35:21;;;;;;;21.58;14.27;;;589.30;1612.80;;;;;;5092348;28;20028;-87
2024/02/27 08:37:47;;;;;;;27.40;16.73;;;614.50;1587.20;;;;;;5079303;28;20047;-88
2024/02/27 08:40:13;;;;;;;20.75;14.75;;;589.40;1612.80;;;;;;5077295;28;20047;-90
2024/02/27 08:42:40;;;;;;;31.67;16.63;;;588.80;1638.40;;;;;;5071541;28;20028;-88
2024/02/27 08:45:07;;;;;;;23.00;14.23;;;589.50;1612.80;;;;;;5087217;28;20073;-89
2024/02/27 08:47:33;;;;;;;20.98;14.00;;;589.70;1612.80;;;;;;5087908;28;20024;-89
2024/02/27 08:49:59;;;;;;;38.22;22.10;;;615.20;1561.60;;;;;;5077173;28;20033;-90
2024/02/27 08:52:24;;;;;;;20.92;16.00;;;665.80;1484.80;;;;;;5088913;28;20054;-89
2024/02/27 08:54:50;;;;;;;26.67;19.05;;;666.00;1484.80;;;;;;5090334;28;20114;-90
2024/02/27 08:57:16;;;;;;;24.50;19.00;;;716.80;1433.60;;;;;;5086594;28;20044;-88
2024/02/27 08:59:44;;;;;;;27.48;17.00;;;716.80;1408.00;;;;;;5078956;28;20048;-86
2024/02/27 09:02:09;;;;;;;20.42;13.30;;;717.70;1356.80;;;;;;5089675;28;20117;-89
2024/02/27 09:04:35;;;;;;;22.13;13.60;;;742.40;1356.80;;;;;;5090070;28;20078;-90
2024/02/27 09:07:01;;;;;;;22.35;13.85;;;666.00;1433.60;;;;;;5086658;28;20490;-89
2024/02/27 09:09:27;;;;;;;20.90;14.20;;;665.90;1459.20;;;;;;5079743;28;20032;-88
2024/02/27 09:11:54;;;;;;;26.60;17.30;;;717.20;1382.40;;;;;;5089710;28;20031;-89
2024/02/27 09:14:19;;;;;;;35.55;18.20;;;691.40;1408.00;;;;;;5079765;28;20031;-89
2024/02/27 09:16:47;;;;;;;26.27;16.98;;;691.40;1408.00;;;;;;5062101;28;20032;-93
2024/02/27 09:19:13;;;;;;;19.45;12.30;;;691.40;1408.00;;;;;;5070324;28;20040;-91
2024/02/27 09:21:43;;;;;;;16.50;8.00;;;691.30;1408.00;;;;;;5070552;28;20502;-91
2024/02/27 09:24:09;;;;;;;10.38;6.50;;;666.20;1408.00;;;;;;5057990;28;20039;-89
2024/02/27 09:26:35;;;;;;;16.10;10.10;;;640.60;1433.60;;;;;;5070073;28;20107;-91
2024/02/27 09:29:02;;;;;;;12.98;10.23;;;640.10;1459.20;;;;;;5078778;28;20064;-89
2024/02/27 09:31:28;;;;;;;11.73;9.00;;;640.50;1433.60;;;;;;5079497;28;20035;-89
2024/02/27 09:33:54;;;;;;;16.33;7.65;;;640.10;1433.60;;;;;;5086396;28;20520;-89
2024/02/27 09:36:20;;;;;;;18.25;8.27;;;640.00;1459.20;;;;;;5081218;28;20040;-87
2024/02/27 09:38:46;;;;;;;62.90;50.63;;;615.10;1459.20;;;;;;5082316;28;20627;-89
2024/02/27 09:41:17;;;;;;;52.55;33.95;;;;;;;;;;5070022;28;20030;-89
2024/02/27 09:43:47;;;;;;;16.13;11.52;;;614.70;1510.40;;;;;;5085364;28;20024;-90
2024/02/27 09:46:14;;;;;;;19.95;11.90;;;;;;;;;;5089478;28;20016;-89
2024/02/27 09:48:43;;;;;;;22.08;10.25;;;;;;;;;;5085066;28;20024;-87
2024/02/27 09:51:10;;;;;;;49.28;34.33;;;589.50;1510.40;;;;;;5079814;28;20050;-90
2024/02/27 09:53:38;;;;;;;11.55;7.30;;;589.40;1510.40;;;;;;5089518;28;20028;-87
2024/02/27 09:56:08;;;;;;;270.00;139.98;;;589.20;1536.00;;;;;;5089403;28;20047;-90
2024/02/27 09:58:38;;;;;;;59.75;30.58;;;589.10;1536.00;;;;;;5089206;28;20118;-92
2024/02/27 10:01:09;;;;;;;11.05;6.45;;;589.00;1536.00;;;;;;5089304;28;20020;-88
2024/02/27 10:03:35;;;;;;;57.15;27.70;;;589.00;1536.00;;;;;;5088886;28;20024;-88
2024/02/27 10:06:02;;;;;;;31.83;14.10;;;564.10;1561.60;;;;;;5077081;28;20029;-90
2024/02/27 10:08:29;;;;;;;16.92;9.40;;;564.10;1561.60;;;;;;5086560;28;20020;-87
2024/02/27 10:10:57;;;;;;;109.03;64.93;;;589.00;1561.60;;;;;;5077767;28;20153;-87
2024/02/27 10:13:24;;;;;;;42.97;24.02;;;588.80;1561.60;;;;;;5069897;28;20107;-87
2024/02/27 10:15:50;;;;;;;48.42;28.77;;;;;;;;;;5073212;28;20025;-88
2024/02/27 10:18:16;;;;;;;17.63;10.43;;;564.00;1561.60;;;;;;5072648;28;20052;-88
2024/02/27 10:20:43;;;;;;;18.55;13.23;;;564.00;1587.20;;;;;;5070891;28;20467;-90
2024/02/27 10:23:08;;;;;;;25.55;16.25;;;564.10;1536.00;;;;;;5071086;28;20401;-87
2024/02/27 10:25:34;;;;;;;28.05;19.63;;;564.00;1561.60;;;;;;5078632;28;20467;-87
2024/02/27 10:28:01;;;;;;;16.65;11.10;;;;;;;;;;5085320;28;20024;-87
2024/02/27 10:30:27;;;;;;;18.40;11.90;;;;;;;;;;5088725;28;20027;-86
2024/02/27 10:32:54;;;;;;;17.77;11.63;;;;;;;;;;5075048;28;20062;-87
2024/02/27 10:35:22;;;;;;;11.75;7.85;;;;;;;;;;5058516;28;20024;-86
2024/02/27 10:37:48;;;;;;;13.82;7.15;;;;;;;;;;5081838;28;20048;-87
2024/02/27 10:40:14;;;;;;;9.02;5.00;;;;;;;;;;5060896;28;20119;-87
2024/02/27 10:42:41;;;;;;;19.35;12.98;;;;;;;;;;5076703;28;20087;-89
2024/02/27 10:45:07;;;;;;;9.70;7.70;;;;;;;;;;5080083;28;20169;-87
2024/02/27 10:47:34;;;;;;;11.68;8.32;;;;;;;;;;5083176;28;20098;-88
2024/02/27 10:50:02;;;;;;;13.65;9.65;;;;;;;;;;5088373;28;20036;-86
2024/02/27 10:52:31;;;;;;;11.77;7.82;;;;;;;;;;5085444;28;20463;-86
2024/02/27 10:54:57;;;;;;;12.70;7.20;;;;;;;;;;5078337;28;20024;-76
2024/02/27 10:57:25;;;;;;;11.68;6.35;;;;;;;;;;5089117;28;20026;-86
2024/02/27 10:59:52;;;;;;;9.65;6.18;;;;;;;;;;5087938;28;20032;-86
2024/02/27 11:02:19;;;;;;;12.15;8.63;;;;;;;;;;5087255;28;20022;-81
2024/02/27 11:04:51;;;;;;;14.45;8.90;;;;;;;;;;5088318;28;20074;-81
2024/02/27 11:07:17;;;;;;;19.02;12.15;;;;;;;;;;5081664;28;20047;-76
2024/02/27 11:09:44;;;;;;;18.85;11.27;;;;;;;;;;5080131;28;20020;-81
2024/02/27 11:12:15;;;;;;;17.50;11.80;;;;;;;;;;5086581;28;20016;-77
2024/02/27 11:14:43;;;;;;;25.33;17.90;;;;;;;;;;5075384;28;20483;-81
2024/02/27 11:17:28;;;;;;;20.42;14.30;;;;;;;;;;5079921;28;20078;-81
2024/02/27 11:19:55;;;;;;;13.05;9.38;;;;;;;;;;5080107;28;20490;-81
2024/02/27 11:22:23;;;;;;;20.23;12.63;;;;;;;;;;5068517;28;20036;-83
2024/02/27 11:24:49;;;;;;;22.58;12.60;;;563.60;1587.20;;;;;;5055177;28;20540;-79
2024/02/27 11:27:21;;;;;;;19.38;12.00;;;563.50;1612.80;;;;;;5083108;28;20351;-80
2024/02/27 11:29:48;;;;;;;14.75;11.23;;;563.20;1638.40;;;;;;5076253;28;20386;-81
2024/02/27 11:32:15;;;;;;;16.33;8.43;;;563.20;1638.40;;;;;;5071526;28;20509;-79
2024/02/27 11:34:41;;;;;;;15.82;10.65;;;563.40;1612.80;;;;;;5072070;28;20063;-82
2024/02/27 11:37:08;;;;;;;10.10;6.93;;;563.30;1638.40;;;;;;5078293;28;20129;-83
2024/02/27 11:39:34;;;;;;;14.18;9.05;;;563.20;1638.40;;;;;;5082175;28;20033;-80
2024/02/27 11:42:04;;;;;;;11.60;7.25;;;563.20;1638.40;;;;;;5068491;28;20032;-82
2024/02/27 11:44:29;;;;;;;14.65;9.98;;;563.30;1638.40;;;;;;5069590;28;20052;-81
2024/02/27 11:46:55;;;;;;;12.45;8.95;;;563.20;1664.00;;;;;;5079704;28;20028;-82
2024/02/27 11:49:40;;;;;;;15.93;9.48;;;563.20;1664.00;;;;;;5084970;28;20024;-78
2024/02/27 11:52:07;;;;;;;15.07;9.43;;;563.40;1638.40;;;;;;5086601;28;20028;-78
2024/02/27 11:54:34;;;;;;;21.15;15.10;;;563.30;1612.80;;;;;;5086865;28;20024;-78
2024/02/27 11:57:00;;;;;;;15.50;10.35;;;563.20;1638.40;;;;;;5079688;28;20028;-78
2024/02/27 11:59:32;;;;;;;25.83;16.70;;;563.30;1612.80;;;;;;5073347;28;20039;-78
2024/02/27 12:02:06;;;;;;;25.30;14.52;;;538.50;1587.20;;;;;;5084618;28;20040;-78
2024/02/27 12:04:31;;;;;;;28.90;22.17;;;538.50;1612.80;;;;;;5070088;28;20028;-76
2024/02/27 12:06:57;;;;;;;21.67;12.90;;;563.20;1638.40;;;;;;5090881;28;20394;-78
2024/02/27 12:09:26;;;;;;;17.83;11.02;;;563.40;1612.80;;;;;;5077547;28;20029;-77
2024/02/27 12:11:55;;;;;;;15.10;7.55;;;563.50;1638.40;;;;;;5081289;28;20027;-78
2024/02/27 12:14:21;;;;;;;30.23;16.05;;;563.50;1612.80;;;;;;5073670;28;20493;-78
2024/02/27 12:16:47;;;;;;;9.35;5.82;;;563.50;1638.40;;;;;;5071296;28;20028;-80
2024/02/27 12:19:14;;;;;;;21.55;12.43;;;563.80;1612.80;;;;;;5071098;28;20111;-81
2024/02/27 12:21:39;;;;;;;9.40;6.15;;;564.00;1638.40;;;;;;5071809;28;20021;-77